Time;durP1;ratioP1;P1;durP2;ratioP2;P2;SDS_P1;SDS_P2;PMS_P1;PMS_P2;Temp;Humidity;BMP_temperature;BMP_pressure;BME280_temperature;BME280_humidity;BME280_pressure;Samples;Min_cycle;Max_cycle;Signal;HPM_P1;HPM_P2
2021/05/23 00:00:29;;;;;;;56.67;35.25;;;;;;;18.81;61.42;100484.91;5082702;28;20039;-56
2021/05/23 00:02:58;;;;;;;59.97;33.45;;;;;;;18.81;61.17;100487.56;5082736;28;20055;-56
2021/05/23 00:05:27;;;;;;;56.83;33.25;;;;;;;18.82;61.31;100486.53;5081274;28;20029;-57
2021/05/23 00:08:02;;;;;;;58.10;32.92;;;;;;;18.80;61.24;100475.28;5083590;28;20032;-58
2021/05/23 00:10:29;;;;;;;55.92;32.78;;;;;;;18.80;61.23;100462.00;5087541;28;20055;-58
2021/05/23 00:12:57;;;;;;;56.97;32.83;;;;;;;18.80;60.81;100462.00;5085122;28;20042;-56
2021/05/23 00:15:33;;;;;;;51.78;31.33;;;;;;;18.78;60.88;100464.88;5086057;28;20033;-56
2021/05/23 00:17:58;;;;;;;47.00;29.58;;;;;;;18.79;60.70;100469.16;5079880;28;20028;-57
2021/05/23 00:20:25;;;;;;;51.60;31.85;;;;;;;18.77;60.68;100451.75;5061095;28;20032;-57
2021/05/23 00:22:51;;;;;;;49.97;31.00;;;;;;;18.79;60.51;100465.69;5072346;28;20078;-56
2021/05/23 00:25:18;;;;;;;50.15;30.58;;;;;;;18.78;60.67;100453.41;5051386;28;20041;-56
2021/05/23 00:27:45;;;;;;;50.42;29.83;;;;;;;18.77;60.77;100451.75;5064811;28;20059;-56
2021/05/23 00:30:11;;;;;;;52.33;28.98;;;;;;;18.77;60.73;100441.94;5062618;28;20036;-56
2021/05/23 00:32:37;;;;;;;48.47;29.48;;;;;;;18.76;60.83;100444.81;5064577;28;20028;-56
2021/05/23 00:35:02;;;;;;;51.17;28.85;;;;;;;18.76;61.02;100439.50;5063326;28;20041;-57
2021/05/23 00:37:28;;;;;;;43.58;26.80;;;;;;;18.75;60.82;100440.50;5064930;28;20546;-59
2021/05/23 00:39:54;;;;;;;47.83;28.92;;;;;;;18.75;60.64;100432.53;5063056;28;20051;-56
2021/05/23 00:42:19;;;;;;;42.30;27.05;;;;;;;18.73;60.66;100432.75;5059563;28;20445;-56
2021/05/23 00:44:45;;;;;;;45.72;26.05;;;;;;;18.73;60.59;100430.09;5067202;28;20033;-56
2021/05/23 00:47:10;;;;;;;48.15;26.48;;;;;;;18.73;60.43;100432.75;5064378;28;20028;-56
2021/05/23 00:49:37;;;;;;;43.90;26.30;;;;;;;18.72;60.67;100422.31;5070306;28;20028;-56
2021/05/23 00:52:05;;;;;;;43.47;25.55;;;;;;;18.71;60.38;100426.81;5053927;28;20117;-57
2021/05/23 00:54:31;;;;;;;43.92;26.08;;;;;;;18.71;60.71;100424.16;5066504;28;20029;-56
2021/05/23 00:56:57;;;;;;;42.25;25.08;;;;;;;18.70;60.68;100427.00;5061104;28;20060;-56
2021/05/23 00:59:22;;;;;;;41.05;25.17;;;;;;;18.71;60.26;100431.31;5062771;28;20487;-58
2021/05/23 01:01:53;;;;;;;39.28;24.88;;;;;;;18.69;60.43;100428.84;5057334;28;20037;-56
2021/05/23 01:04:19;;;;;;;37.63;22.70;;;;;;;18.70;60.22;100424.34;5064497;28;20039;-56
2021/05/23 01:06:44;;;;;;;35.97;23.15;;;;;;;18.70;60.53;100413.72;5064132;28;20033;-57
2021/05/23 01:09:10;;;;;;;37.67;24.13;;;;;;;18.69;60.51;100409.44;5062475;28;20065;-56
2021/05/23 01:11:41;;;;;;;36.83;22.92;;;;;;;18.69;60.37;100417.41;5061486;28;20082;-56
2021/05/23 01:14:25;;;;;;;38.65;22.98;;;;;;;18.66;60.26;100404.53;5066952;28;20044;-56
2021/05/23 01:16:53;;;;;;;36.90;22.70;;;;;;;18.67;60.07;100399.00;5066417;28;20029;-57
2021/05/23 01:19:31;;;;;;;40.25;22.58;;;;;;;18.65;60.09;100403.72;5060655;28;20253;-56
2021/05/23 01:22:16;;;;;;;38.72;21.50;;;;;;;18.64;60.00;100402.06;5063364;28;20074;-56
2021/05/23 01:25:04;;;;;;;34.92;21.52;;;;;;;18.66;59.90;100388.59;5057811;28;20033;-56
2021/05/23 01:27:38;;;;;;;32.45;20.98;;;;;;;18.65;60.15;100393.09;5071479;28;20036;-56
2021/05/23 01:30:19;;;;;;;34.90;20.83;;;;;;;18.64;59.99;100393.28;5089989;28;20028;-56
2021/05/23 01:32:47;;;;;;;34.45;20.95;;;;;;;18.65;59.95;100389.59;5084165;28;20051;-56
2021/05/23 01:35:18;;;;;;;35.05;20.52;;;;;;;18.63;60.11;100384.50;5072045;28;20153;-57
2021/05/23 01:37:50;;;;;;;33.58;21.27;;;;;;;18.63;59.96;100387.16;5071684;28;20491;-54
2021/05/23 01:40:17;;;;;;;34.25;20.95;;;;;;;18.65;59.68;100385.13;5090596;28;20111;-56
2021/05/23 01:42:44;;;;;;;32.70;19.95;;;;;;;18.64;60.09;100383.47;5089739;28;20381;-56
2021/05/23 01:45:10;;;;;;;34.70;19.90;;;;;;;18.63;59.91;100373.88;5072277;28;20089;-56
2021/05/23 01:47:37;;;;;;;30.60;19.42;;;;;;;18.64;59.93;100372.03;5083025;28;20036;-56
2021/05/23 01:50:03;;;;;;;30.55;19.42;;;;;;;18.63;59.85;100371.22;5070436;28;20039;-55
2021/05/23 01:52:29;;;;;;;32.63;19.00;;;;;;;18.63;59.46;100359.75;5083384;28;20075;-57
2021/05/23 01:54:54;;;;;;;28.05;18.35;;;;;;;18.63;59.61;100370.38;5079162;28;20056;-57
2021/05/23 01:57:20;;;;;;;29.67;18.08;;;;;;;18.62;59.82;100358.06;5034836;28;20476;-57
2021/05/23 01:59:45;;;;;;;27.88;17.40;;;;;;;18.61;59.63;100348.47;5069636;28;20131;-56
2021/05/23 02:02:12;;;;;;;27.60;17.88;;;;;;;18.62;59.54;100355.41;5089888;28;20106;-55
2021/05/23 02:04:37;;;;;;;28.45;17.38;;;;;;;18.62;59.58;100350.09;5081943;28;20075;-57
2021/05/23 02:07:03;;;;;;;27.58;17.30;;;;;;;18.60;59.60;100349.50;5078346;28;20064;-56
2021/05/23 02:09:29;;;;;;;27.88;17.25;;;;;;;18.59;59.59;100343.34;5084167;28;20131;-57
2021/05/23 02:11:55;;;;;;;27.50;16.35;;;;;;;18.60;59.18;100346.84;5089498;28;20085;-56
2021/05/23 02:14:22;;;;;;;27.42;16.33;;;;;;;18.61;59.26;100343.16;5089555;28;20031;-54
2021/05/23 02:16:51;;;;;;;24.80;16.75;;;;;;;18.60;59.35;100338.88;5089076;28;20154;-56
2021/05/23 02:19:17;;;;;;;26.75;16.40;;;;;;;18.59;59.07;100335.38;5071770;28;20033;-56
2021/05/23 02:21:42;;;;;;;25.60;15.23;;;;;;;18.58;59.31;100332.94;5067926;28;20430;-56
2021/05/23 02:24:08;;;;;;;26.20;16.60;;;;;;;18.59;58.94;100331.91;5089525;28;20122;-57
2021/05/23 02:26:33;;;;;;;25.35;15.48;;;;;;;18.57;59.13;100324.16;5088515;28;20075;-57
2021/05/23 02:28:59;;;;;;;26.85;15.52;;;;;;;18.56;58.96;100320.69;5088399;28;20036;-58
2021/05/23 02:31:24;;;;;;;25.70;15.50;;;;;;;18.57;59.14;100318.84;5089701;28;20024;-56
2021/05/23 02:33:50;;;;;;;25.90;15.48;;;;;;;18.56;58.86;100315.38;5082973;28;20430;-57
2021/05/23 02:36:15;;;;;;;21.88;14.50;;;;;;;18.57;59.04;100297.59;5069788;28;20114;-56
2021/05/23 02:38:41;;;;;;;25.05;14.07;;;;;;;18.56;58.61;100299.44;5089711;28;20032;-56
2021/05/23 02:41:06;;;;;;;21.73;13.38;;;;;;;18.55;58.61;100295.13;5070731;28;20036;-55
2021/05/23 02:43:32;;;;;;;21.77;13.13;;;;;;;18.56;58.79;100294.13;5064817;28;20036;-54
2021/05/23 02:45:57;;;;;;;23.98;13.40;;;;;;;18.54;58.86;100288.19;5089253;28;20040;-56
2021/05/23 02:48:23;;;;;;;19.55;13.43;;;;;;;18.54;58.51;100280.22;5080819;28;20034;-56
2021/05/23 02:50:51;;;;;;;20.40;13.13;;;;;;;18.54;58.32;100271.44;5070316;28;20038;-55
2021/05/23 02:53:17;;;;;;;22.80;13.07;;;;;;;18.54;58.48;100282.06;5070004;28;20496;-56
2021/05/23 02:55:45;;;;;;;20.15;12.82;;;;;;;18.53;58.49;100265.31;5088556;28;20414;-56
2021/05/23 02:58:12;;;;;;;21.17;12.40;;;;;;;18.54;58.40;100260.81;5087725;28;20089;-56
2021/05/23 03:00:38;;;;;;;21.50;12.77;;;;;;;18.53;58.22;100260.00;5082170;28;20067;-56
2021/05/23 03:03:04;;;;;;;21.15;12.65;;;;;;;18.52;58.33;100258.38;5064641;28;20067;-56
2021/05/23 03:05:30;;;;;;;21.65;13.43;;;;;;;18.53;58.36;100253.88;5088058;28;20630;-56
2021/05/23 03:07:56;;;;;;;21.02;13.45;;;;;;;18.51;57.88;100246.09;5089425;28;20036;-56
2021/05/23 03:10:33;;;;;;;20.27;12.25;;;;;;;18.50;58.09;100238.34;5088157;28;20040;-56
2021/05/23 03:13:00;;;;;;;17.98;11.23;;;;;;;18.51;57.85;100238.13;5088969;28;20036;-59
2021/05/23 03:15:28;;;;;;;17.73;10.85;;;;;;;18.50;57.81;100230.38;5069576;28;20042;-56
2021/05/23 03:17:54;;;;;;;19.23;12.20;;;;;;;18.49;57.68;100234.88;5064638;28;20035;-56
2021/05/23 03:20:22;;;;;;;16.45;10.45;;;;;;;18.50;57.85;100222.41;5086910;28;20036;-56
2021/05/23 03:22:52;;;;;;;17.63;11.43;;;;;;;18.49;57.36;100216.28;5062522;28;20581;-57
2021/05/23 03:25:19;;;;;;;16.35;10.32;;;;;;;18.49;57.56;100218.94;5086475;28;20056;-56
2021/05/23 03:27:44;;;;;;;18.05;11.40;;;;;;;18.48;57.67;100217.31;5081708;28;20040;-56
2021/05/23 03:30:13;;;;;;;18.08;10.55;;;;;;;18.48;57.40;100206.69;5067819;28;20081;-57
2021/05/23 03:32:38;;;;;;;16.17;10.82;;;;;;;18.49;57.34;100199.53;5073927;28;20102;-56
2021/05/23 03:35:05;;;;;;;16.77;9.63;;;;;;;18.47;57.42;100197.06;5070255;28;20046;-56
2021/05/23 03:37:31;;;;;;;16.77;10.00;;;;;;;18.47;57.38;100191.75;5069626;28;20043;-56
2021/05/23 03:39:57;;;;;;;16.92;9.73;;;;;;;18.47;57.20;100188.28;5088921;28;20036;-56
2021/05/23 03:42:22;;;;;;;14.68;9.27;;;;;;;18.45;57.49;100187.66;5056831;28;20036;-56
2021/05/23 03:44:49;;;;;;;14.93;9.40;;;;;;;18.47;56.87;100190.94;5075155;28;20036;-57
2021/05/23 03:47:14;;;;;;;16.63;8.75;;;;;;;18.45;56.81;100180.50;5089436;28;20031;-56
2021/05/23 03:49:40;;;;;;;16.73;9.05;;;;;;;18.45;56.95;100182.34;5051795;28;20028;-57
2021/05/23 03:52:06;;;;;;;15.48;9.38;;;;;;;18.45;57.10;100172.53;5070340;28;20046;-55
2021/05/23 03:54:32;;;;;;;13.57;8.82;;;;;;;18.44;56.90;100168.25;5056525;28;20123;-56
2021/05/23 03:56:57;;;;;;;13.77;8.52;;;;;;;18.44;56.89;100162.13;5089080;28;20123;-56
2021/05/23 03:59:23;;;;;;;12.18;8.38;;;;;;;18.43;56.82;100160.50;5087866;28;20048;-56
2021/05/23 04:01:48;;;;;;;13.40;8.50;;;;;;;18.44;56.71;100151.50;5082323;28;20044;-55
2021/05/23 04:04:14;;;;;;;15.07;8.95;;;;;;;18.43;56.82;100157.84;5080927;28;20425;-56
2021/05/23 04:06:39;;;;;;;13.48;8.45;;;;;;;18.43;56.53;100147.22;5039898;28;20090;-54
2021/05/23 04:09:05;;;;;;;13.02;7.45;;;;;;;18.43;56.59;100145.38;5088397;28;20086;-55
2021/05/23 04:11:35;;;;;;;13.25;8.25;;;;;;;18.42;56.43;100143.75;5087787;28;20039;-56
2021/05/23 04:14:01;;;;;;;12.57;7.90;;;;;;;18.43;56.39;100144.56;5062992;28;20059;-56
2021/05/23 04:16:26;;;;;;;11.82;7.75;;;;;;;18.43;56.55;100136.59;5081662;28;20491;-55
2021/05/23 04:18:52;;;;;;;12.60;7.63;;;;;;;18.40;56.42;100140.47;5088219;28;20469;-57
2021/05/23 04:21:18;;;;;;;11.98;7.75;;;;;;;18.40;56.59;100137.81;5068889;28;20070;-54
2021/05/23 04:23:43;;;;;;;12.88;7.32;;;;;;;18.42;56.29;100129.66;5087875;28;20036;-56
2021/05/23 04:26:09;;;;;;;13.57;7.82;;;;;;;18.40;56.61;100129.84;5087277;28;20131;-56
2021/05/23 04:28:34;;;;;;;12.35;7.15;;;;;;;18.40;56.67;100127.19;5062364;28;20067;-55
2021/05/23 04:31:00;;;;;;;12.93;6.93;;;;;;;18.40;56.32;100123.72;5063806;28;20169;-56
2021/05/23 04:33:25;;;;;;;9.73;6.07;;;;;;;18.39;56.26;100117.59;5060906;28;20086;-56
2021/05/23 04:35:51;;;;;;;11.30;6.82;;;;;;;18.39;56.35;100114.13;5085439;28;20036;-55
2021/05/23 04:38:17;;;;;;;11.80;7.30;;;;;;;18.40;56.46;100111.25;5058874;28;20432;-56
2021/05/23 04:40:43;;;;;;;13.02;7.13;;;;;;;18.39;56.65;100106.97;5088119;28;20052;-56
2021/05/23 04:43:08;;;;;;;10.70;6.55;;;;;;;18.37;56.51;100101.06;5073033;28;20104;-56
2021/05/23 04:45:36;;;;;;;9.85;6.40;;;;;;;18.37;56.19;100095.75;5091760;28;20043;-56
2021/05/23 04:48:02;;;;;;;12.52;6.85;;;;;;;18.38;56.35;100085.94;5078091;28;20028;-56
2021/05/23 04:50:28;;;;;;;11.20;6.90;;;;;;;18.37;56.56;100085.13;5072743;28;20074;-60
2021/05/23 04:52:53;;;;;;;10.70;6.05;;;;;;;18.37;56.23;100081.66;5091549;28;20048;-56
2021/05/23 04:55:19;;;;;;;10.23;6.38;;;;;;;18.37;56.44;100079.00;5091589;28;20097;-57
2021/05/23 04:57:44;;;;;;;10.90;6.18;;;;;;;18.36;56.31;100078.19;5090857;28;20034;-56
2021/05/23 05:00:12;;;;;;;10.63;6.60;;;;;;;18.37;56.23;100077.16;5077386;28;20035;-56
2021/05/23 05:02:38;;;;;;;11.02;6.65;;;;;;;18.36;56.37;100059.59;5091228;28;20487;-56
2021/05/23 05:05:05;;;;;;;9.05;5.43;;;;;;;18.35;56.01;100052.66;5090639;28;20024;-57
2021/05/23 05:07:31;;;;;;;9.40;5.78;;;;;;;18.36;56.22;100046.31;5080302;28;20489;-55
2021/05/23 05:09:56;;;;;;;9.23;5.60;;;;;;;18.35;56.39;100039.38;5057354;28;20024;-55
2021/05/23 05:12:22;;;;;;;8.95;5.85;;;;;;;18.35;56.14;100039.38;5091169;28;20036;-56
2021/05/23 05:14:48;;;;;;;9.50;6.40;;;;;;;18.35;56.20;100042.03;5071269;28;20060;-61
2021/05/23 05:17:13;;;;;;;9.15;5.53;;;;;;;18.35;56.14;100034.06;5078981;28;20423;-56
2021/05/23 05:19:40;;;;;;;8.38;5.43;;;;;;;18.35;56.23;100035.91;5071744;28;20032;-57
2021/05/23 05:22:05;;;;;;;9.95;5.80;;;;;;;18.34;56.28;100037.75;5068443;28;20597;-56
2021/05/23 05:24:31;;;;;;;11.65;5.97;;;;;;;18.34;56.14;100027.13;5066711;28;20090;-56
2021/05/23 05:26:56;;;;;;;9.50;5.53;;;;;;;18.32;56.06;100013.25;5050432;28;20045;-55
2021/05/23 05:29:22;;;;;;;9.10;5.60;;;;;;;18.33;56.15;100020.19;5085573;28;20793;-56
2021/05/23 05:31:48;;;;;;;8.52;5.40;;;;;;;18.32;56.03;100009.78;5078628;28;20205;-56
2021/05/23 05:34:14;;;;;;;8.68;5.20;;;;;;;18.32;56.19;100010.59;5085354;28;20043;-55
2021/05/23 05:36:39;;;;;;;9.60;5.50;;;;;;;18.32;56.00;99997.31;5061049;28;20563;-56
2021/05/23 05:39:06;;;;;;;9.00;5.65;;;;;;;18.31;55.94;99994.88;5090522;28;20071;-56
2021/05/23 05:41:31;;;;;;;8.68;4.88;;;;;;;18.31;56.34;99995.69;5055371;28;20059;-56
2021/05/23 05:43:57;;;;;;;8.23;5.28;;;;;;;18.30;56.26;99994.03;5072176;28;20056;-54
2021/05/23 05:46:22;;;;;;;7.15;4.43;;;;;;;18.30;56.12;99986.06;5077348;28;20032;-55
2021/05/23 05:48:48;;;;;;;8.38;4.93;;;;;;;18.31;56.16;99984.25;5090442;28;20077;-57
2021/05/23 05:51:13;;;;;;;7.38;4.25;;;;;;;18.30;55.95;99967.47;5071058;28;20040;-57
2021/05/23 05:53:39;;;;;;;8.00;4.43;;;;;;;18.30;56.16;99969.31;5089544;28;20040;-58
2021/05/23 05:56:05;;;;;;;7.00;4.72;;;;;;;18.30;56.14;99954.22;5071989;28;20036;-59
2021/05/23 05:58:30;;;;;;;7.70;4.75;;;;;;;18.30;55.96;99951.56;5077076;28;20032;-56
2021/05/23 06:00:56;;;;;;;8.38;4.80;;;;;;;18.29;56.19;99947.25;5090359;28;20457;-56
2021/05/23 06:03:21;;;;;;;8.70;4.93;;;;;;;18.30;56.19;99940.94;5076261;28;20020;-56
2021/05/23 06:05:47;;;;;;;8.05;4.55;;;;;;;18.30;55.95;99938.28;5089964;28;20633;-55
2021/05/23 06:08:12;;;;;;;6.53;4.10;;;;;;;18.30;56.12;99926.84;5088908;28;20344;-57
2021/05/23 06:10:39;;;;;;;8.80;4.55;;;;;;;18.29;56.05;99922.56;5063337;28;20448;-57
2021/05/23 06:13:05;;;;;;;9.10;4.40;;;;;;;18.29;55.97;99927.88;5067001;28;20123;-60
2021/05/23 06:15:32;;;;;;;7.45;4.25;;;;;;;18.29;55.81;99922.56;5076891;28;20102;-53
2021/05/23 06:17:58;;;;;;;6.88;4.20;;;;;;;18.28;56.06;99908.47;5090167;28;20047;-56
2021/05/23 06:20:23;;;;;;;6.45;4.10;;;;;;;18.27;56.35;99902.34;5087281;28;20020;-57
2021/05/23 06:22:49;;;;;;;7.20;3.72;;;;;;;18.28;56.28;99889.88;5088019;28;20483;-58
2021/05/23 06:25:15;;;;;;;7.28;4.47;;;;;;;18.28;56.17;99889.88;5085520;28;20048;-63
2021/05/23 06:27:40;;;;;;;9.40;4.22;;;;;;;18.29;56.31;99880.09;5064420;28;20032;-67
2021/05/23 06:30:07;;;;;;;7.07;3.97;;;;;;;18.29;56.66;99875.59;5080875;28;20082;-63
2021/05/23 06:32:32;;;;;;;7.28;3.65;;;;;;;18.30;56.93;99871.91;5083106;28;20027;-59
2021/05/23 06:34:58;;;;;;;9.55;3.45;;;;;;;18.30;56.69;99871.91;5080064;28;20041;-61
2021/05/23 06:37:23;;;;;;;7.25;3.58;;;;;;;18.31;56.99;99878.06;5064626;28;20032;-60
2021/05/23 06:39:49;;;;;;;6.20;3.33;;;;;;;18.30;56.83;99863.94;5069168;28;20043;-59
2021/05/23 06:42:15;;;;;;;7.07;2.92;;;;;;;18.29;56.74;99861.50;5053691;28;20059;-59
2021/05/23 06:44:40;;;;;;;6.18;2.60;;;;;;;18.29;56.65;99864.97;5076611;28;20039;-60
2021/05/23 06:47:06;;;;;;;6.55;3.13;;;;;;;18.27;56.46;99867.03;5086937;28;20058;-59
2021/05/23 06:49:31;;;;;;;4.95;2.50;;;;;;;18.26;56.46;99860.91;5052280;28;20054;-64
2021/05/23 06:51:58;;;;;;;5.13;2.42;;;;;;;18.25;56.24;99842.53;5091731;28;20055;-59
2021/05/23 06:54:23;;;;;;;5.82;2.50;;;;;;;18.25;56.48;99850.50;5089894;28;20039;-59
2021/05/23 06:56:49;;;;;;;6.45;2.50;;;;;;;18.23;56.17;99842.75;5082731;28;20502;-59
2021/05/23 06:59:14;;;;;;;5.32;2.40;;;;;;;18.23;56.28;99828.66;5062239;28;20089;-59
2021/05/23 07:01:40;;;;;;;5.35;2.53;;;;;;;18.22;56.06;99835.81;5065788;28;20067;-63
2021/05/23 07:04:05;;;;;;;4.22;2.10;;;;;;;18.20;56.10;99829.09;5064005;28;20147;-60
2021/05/23 07:06:31;;;;;;;5.47;2.47;;;;;;;18.19;56.17;99822.97;5047222;28;20090;-60
2021/05/23 07:08:56;;;;;;;5.95;2.22;;;;;;;18.19;55.98;99816.84;5083987;28;20051;-60
2021/05/23 07:11:21;;;;;;;7.22;2.08;;;;;;;18.18;55.97;99816.03;5065941;28;20080;-59
2021/05/23 07:13:47;;;;;;;6.28;1.77;;;;;;;18.17;55.91;99808.28;5084785;28;20039;-59
2021/05/23 07:16:12;;;;;;;6.13;1.95;;;;;;;18.16;55.83;99811.97;5084819;28;20032;-61
2021/05/23 07:18:38;;;;;;;7.43;2.15;;;;;;;18.16;55.91;99798.69;5082087;28;20032;-61
2021/05/23 07:21:04;;;;;;;4.50;1.70;;;;;;;18.16;55.97;99812.78;5050073;28;20036;-61
2021/05/23 07:23:30;;;;;;;5.25;1.33;;;;;;;18.17;55.76;99797.66;5078739;28;20025;-62
2021/05/23 07:25:56;;;;;;;7.68;1.52;;;;;;;18.16;55.58;99783.56;5078892;28;20506;-60
2021/05/23 07:28:22;;;;;;;4.30;1.45;;;;;;;18.15;55.84;99783.78;5083265;28;20809;-59
2021/05/23 07:30:47;;;;;;;9.32;1.40;;;;;;;18.16;55.91;99780.09;5066147;28;20024;-60
2021/05/23 07:33:15;;;;;;;3.25;1.25;;;;;;;18.15;56.16;99776.63;5085297;28;20587;-64
2021/05/23 07:35:41;;;;;;;6.80;1.70;;;;;;;18.17;56.12;99765.81;5084137;28;20146;-62
2021/05/23 07:38:07;;;;;;;3.28;1.20;;;;;;;18.15;55.89;99752.75;5066896;28;20054;-63
2021/05/23 07:40:33;;;;;;;5.78;1.40;;;;;;;18.17;56.01;99763.16;5061761;28;20550;-61
2021/05/23 07:42:58;;;;;;;4.20;1.40;;;;;;;18.17;56.17;99756.00;5084394;28;20446;-63
2021/05/23 07:45:24;;;;;;;3.45;1.00;;;;;;;18.18;55.88;99762.94;5083956;28;20043;-62
2021/05/23 07:47:49;;;;;;;5.85;1.20;;;;;;;18.18;56.19;99747.00;5083869;28;20040;-60
2021/05/23 07:50:15;;;;;;;6.50;1.65;;;;;;;18.19;56.50;99753.13;5064868;28;20110;-61
2021/05/23 07:52:41;;;;;;;4.45;1.02;;;;;;;18.20;56.47;99744.16;5065192;28;20184;-59
2021/05/23 07:55:07;;;;;;;3.83;1.45;;;;;;;18.21;56.51;99745.78;5084645;28;20032;-60
2021/05/23 07:57:33;;;;;;;4.18;1.20;;;;;;;18.21;56.69;99735.97;5065120;28;20059;-59
2021/05/23 07:59:58;;;;;;;9.38;1.27;;;;;;;18.23;56.85;99730.44;5065063;28;20460;-66
2021/05/23 08:02:24;;;;;;;3.35;1.13;;;;;;;18.22;56.96;99721.66;5065991;28;20028;-62
2021/05/23 08:04:49;;;;;;;6.22;1.30;;;;;;;18.23;56.71;99710.00;5082916;28;20088;-62
2021/05/23 08:07:15;;;;;;;4.75;1.38;;;;;;;18.24;56.98;99710.81;5065887;28;20068;-60
2021/05/23 08:09:41;;;;;;;2.67;1.00;;;;;;;18.24;56.90;99702.88;5083867;28;20036;-64
2021/05/23 08:12:06;;;;;;;3.83;1.23;;;;;;;18.26;56.86;99708.78;5081234;28;20637;-60
2021/05/23 08:14:32;;;;;;;5.55;1.02;;;;;;;18.25;56.67;99701.84;5063441;28;20098;-63
2021/05/23 08:16:58;;;;;;;5.40;1.20;;;;;;;18.26;57.02;99700.81;5083663;28;20700;-58
2021/05/23 08:19:23;;;;;;;3.38;0.93;;;;;;;18.26;56.80;99691.00;5086291;28;20048;-61
2021/05/23 08:21:49;;;;;;;5.18;1.00;;;;;;;18.25;56.97;99697.34;5046800;28;20360;-60
2021/05/23 08:24:15;;;;;;;3.88;1.00;;;;;;;18.27;56.78;99686.50;5069335;28;20102;-59
2021/05/23 08:26:40;;;;;;;4.00;1.00;;;;;;;18.27;56.77;99681.19;5051752;28;20111;-63
2021/05/23 08:29:06;;;;;;;3.45;1.40;;;;;;;18.26;57.06;99672.41;5084850;28;20057;-60
2021/05/23 08:31:32;;;;;;;9.35;7.13;;;;;;;18.27;57.01;99674.03;5086006;28;20031;-67
2021/05/23 08:33:57;;;;;;;10.02;7.82;;;;;;;18.29;57.12;99668.50;5067540;28;20442;-60
2021/05/23 08:36:23;;;;;;;9.65;6.85;;;;;;;18.29;57.31;99671.16;5086444;28;20040;-63
2021/05/23 08:38:48;;;;;;;8.43;5.22;;;;;;;18.30;57.18;99664.00;5070821;28;20032;-63
2021/05/23 08:41:15;;;;;;;10.38;6.55;;;;;;;18.30;57.49;99664.81;5058755;28;20044;-62
2021/05/23 08:43:41;;;;;;;7.75;5.80;;;;;;;18.29;57.09;99663.19;5069915;28;20116;-59
2021/05/23 08:46:06;;;;;;;12.18;6.57;;;;;;;18.31;57.32;99655.06;5073122;28;20071;-59
2021/05/23 08:48:33;;;;;;;12.15;7.82;;;;;;;18.31;57.31;99650.56;5090941;28;20138;-60
2021/05/23 08:50:59;;;;;;;14.40;8.82;;;;;;;18.32;57.37;99654.84;5071465;28;20356;-59
2021/05/23 08:53:26;;;;;;;12.45;8.52;;;;;;;18.33;57.24;99653.00;5072284;28;20339;-64
2021/05/23 08:55:52;;;;;;;11.27;7.20;;;;;;;18.32;57.46;99646.88;5068030;28;20104;-60
2021/05/23 08:58:17;;;;;;;12.30;6.75;;;;;;;18.33;57.46;99645.03;5086848;28;20463;-59
2021/05/23 09:00:43;;;;;;;16.10;6.80;;;;;;;18.33;57.50;99642.38;5053399;28;20134;-58
2021/05/23 09:03:12;;;;;;;11.32;5.90;;;;;;;18.33;57.40;99626.44;5087686;28;20040;-61
2021/05/23 09:05:43;;;;;;;9.23;5.53;;;;;;;18.32;57.05;99620.31;5087997;28;20303;-58
2021/05/23 09:08:13;;;;;;;13.98;5.95;;;;;;;18.33;57.23;99619.28;5088527;28;20053;-62
2021/05/23 09:10:39;;;;;;;15.48;6.72;;;;;;;18.34;57.35;99612.94;5089061;28;20031;-59
2021/05/23 09:13:05;;;;;;;10.05;5.90;;;;;;;18.34;57.66;99610.28;5087568;28;20482;-59
2021/05/23 09:15:31;;;;;;;13.65;6.10;;;;;;;18.35;57.53;99616.41;5088390;28;20031;-60
2021/05/23 09:18:00;;;;;;;8.40;5.28;;;;;;;18.35;57.41;99654.41;5062480;28;20036;-62
2021/05/23 09:20:27;;;;;;;13.20;4.80;;;;;;;18.37;57.44;99667.44;5079159;28;20036;-64
2021/05/23 09:22:53;;;;;;;10.98;5.22;;;;;;;18.35;57.72;99678.28;5049248;28;20052;-62
2021/05/23 09:25:33;;;;;;;12.35;5.22;;;;;;;18.34;57.59;99681.97;5061248;28;20072;-60
2021/05/23 09:27:59;;;;;;;10.88;4.53;;;;;;;18.35;57.82;99694.22;5076397;28;20040;-64
2021/05/23 09:30:28;;;;;;;8.93;3.88;;;;;;;18.36;57.62;99679.09;5086708;28;20085;-67
2021/05/23 09:32:55;;;;;;;7.55;3.63;;;;;;;18.36;57.67;99685.22;5058686;28;20124;-64
2021/05/23 09:35:24;;;;;;;7.95;3.60;;;;;;;18.35;57.67;99694.22;5073077;28;20028;-61
2021/05/23 09:38:01;;;;;;;8.50;3.85;;;;;;;18.34;57.62;99695.25;5076816;28;20032;-60
2021/05/23 09:40:31;;;;;;;11.43;3.90;;;;;;;18.35;57.37;99694.22;5091719;28;20089;-60
2021/05/23 09:42:57;;;;;;;6.18;3.13;;;;;;;18.36;57.41;99695.03;5059847;28;20430;-61
2021/05/23 09:45:37;;;;;;;9.77;3.38;;;;;;;18.36;58.01;99701.16;5091230;28;20028;-60
2021/05/23 09:48:04;;;;;;;8.95;3.47;;;;;;;18.35;58.02;99698.72;5089131;28;20040;-67
2021/05/23 09:50:41;;;;;;;11.43;3.50;;;;;;;18.33;58.14;99695.47;5088001;28;20101;-63
2021/05/23 09:53:21;;;;;;;8.80;3.00;;;;;;;18.34;58.43;99697.09;5090199;28;20120;-61
2021/05/23 09:56:04;;;;;;;22.20;4.03;;;;;;;18.32;58.39;99699.97;5090474;28;20089;-62
2021/05/23 09:58:36;;;;;;;14.73;2.95;;;;;;;18.35;58.06;99696.88;5089647;28;20023;-63
2021/05/23 10:01:03;;;;;;;13.00;2.97;;;;;;;18.34;58.22;99697.09;5085758;28;20024;-67
2021/05/23 10:03:31;;;;;;;11.75;3.03;;;;;;;18.35;58.24;99698.72;5090526;28;20027;-65
2021/05/23 10:05:59;;;;;;;12.73;2.80;;;;;;;18.35;58.19;99704.84;5087371;28;20374;-65
2021/05/23 10:08:27;;;;;;;9.20;2.85;;;;;;;18.35;58.40;99707.50;5087677;28;20735;-61
2021/05/23 10:10:53;;;;;;;19.00;3.47;;;;;;;18.34;58.16;99705.88;5087220;28;20141;-64
2021/05/23 10:13:20;;;;;;;11.65;2.75;;;;;;;18.34;58.01;99695.25;5069943;28;20498;-64
2021/05/23 10:15:47;;;;;;;12.98;2.78;;;;;;;18.34;58.20;99710.38;5087791;28;20149;-63
2021/05/23 10:18:12;;;;;;;10.68;2.75;;;;;;;18.34;57.86;99713.84;5086162;28;20032;-63
2021/05/23 10:20:39;;;;;;;8.98;2.40;;;;;;;18.33;58.13;99709.56;5070351;28;20055;-63
2021/05/23 10:23:20;;;;;;;13.90;2.33;;;;;;;18.33;58.18;99711.41;5068011;28;20035;-63
2021/05/23 10:25:52;;;;;;;7.28;2.28;;;;;;;18.33;57.84;99708.75;5087622;28;20056;-63
2021/05/23 10:28:19;;;;;;;9.02;2.55;;;;;;;18.32;57.73;99704.47;5089511;28;20597;-64
2021/05/23 10:30:53;;;;;;;11.88;2.72;;;;;;;18.29;57.79;99705.69;5089774;28;20032;-63
2021/05/23 10:33:20;;;;;;;8.20;2.25;;;;;;;18.29;57.98;99708.34;5055550;28;20031;-67
2021/05/23 10:35:47;;;;;;;9.45;2.40;;;;;;;18.30;57.83;99709.16;5087204;28;20044;-60
2021/05/23 10:38:15;;;;;;;11.48;2.45;;;;;;;18.29;57.78;99710.19;5077949;28;20027;-63
2021/05/23 10:40:55;;;;;;;13.38;2.42;;;;;;;18.27;57.91;99711.22;5089802;28;20036;-60
2021/05/23 10:43:26;;;;;;;9.65;2.10;;;;;;;18.28;57.53;99704.06;5059219;28;20016;-62
2021/05/23 10:46:14;;;;;;;10.45;2.35;;;;;;;18.26;57.84;99698.16;5088764;28;20099;-62
2021/05/23 10:48:53;;;;;;;13.30;2.78;;;;;;;18.24;57.87;99687.75;5079845;28;20036;-62
2021/05/23 10:51:19;;;;;;;8.02;2.40;;;;;;;18.26;57.58;99688.34;5088001;28;20028;-62
2021/05/23 10:53:45;;;;;;;8.90;2.40;;;;;;;18.25;57.70;99677.94;5080032;28;20039;-61
2021/05/23 10:56:37;;;;;;;11.23;3.38;;;;;;;18.21;57.39;99658.16;5071877;28;20056;-62
2021/05/23 10:59:04;;;;;;;8.38;2.40;;;;;;;18.24;57.46;99644.47;5075674;28;20110;-62
2021/05/23 11:01:37;;;;;;;12.63;2.50;;;;;;;18.22;57.18;99634.06;5070414;28;20036;-62
2021/05/23 11:04:11;;;;;;;9.10;2.55;;;;;;;18.21;57.24;99618.34;5089893;28;20024;-62
2021/05/23 11:06:36;;;;;;;7.78;2.33;;;;;;;18.21;57.18;99603.25;5078278;28;20478;-61
2021/05/23 11:09:07;;;;;;;13.10;2.53;;;;;;;18.19;56.87;99580.59;5089937;28;20115;-62
2021/05/23 11:11:32;;;;;;;9.95;2.22;;;;;;;18.19;56.41;99578.75;5070567;28;20422;-62
2021/05/23 11:14:12;;;;;;;6.63;2.05;;;;;;;18.16;56.22;99586.34;5089147;28;20036;-62
2021/05/23 11:16:52;;;;;;;5.18;1.90;;;;;;;18.15;56.10;99587.38;5088947;28;20086;-62
2021/05/23 11:19:18;;;;;;;6.97;2.03;;;;;;;18.15;56.10;99590.84;5083577;28;20165;-62
2021/05/23 11:21:46;;;;;;;5.82;1.90;;;;;;;18.14;55.97;99578.59;5079292;28;20451;-61